sensor_id;sensor_type;location;lat;lon;timestamp;pressure;altitude;pressure_sealevel;temperature;humidity
45793;BME280;31495;42.740;22.908;2024-01-07T00:00:41;91530.91;;;6.14;78.44
45793;BME280;31495;42.740;22.908;2024-01-07T00:01:48;91610.94;;;6.65;78.52
45793;BME280;31495;42.740;22.908;2024-01-07T00:02:48;91603.22;;;6.65;78.73
45793;BME280;31495;42.740;22.908;2024-01-07T00:03:48;91593.16;;;6.51;78.94
45793;BME280;31495;42.740;22.908;2024-01-07T00:04:47;91485.63;;;5.77;79.11
45793;BME280;31495;42.740;22.908;2024-01-07T00:05:47;91605.22;;;6.62;79.04
45793;BME280;31495;42.740;22.908;2024-01-07T00:06:46;91605.00;;;6.64;79.23
45793;BME280;31495;42.740;22.908;2024-01-07T00:07:46;91608.91;;;6.67;79.33
45793;BME280;31495;42.740;22.908;2024-01-07T00:08:47;91580.84;;;6.53;79.54
45793;BME280;31495;42.740;22.908;2024-01-07T00:09:46;91597.63;;;6.68;79.61
45793;BME280;31495;42.740;22.908;2024-01-07T00:10:46;91579.63;;;6.56;79.71
45793;BME280;31495;42.740;22.908;2024-01-07T00:11:45;91597.75;;;6.61;80.17
45793;BME280;31495;42.740;22.908;2024-01-07T00:12:45;91575.28;;;6.56;80.13
45793;BME280;31495;42.740;22.908;2024-01-07T00:13:45;91563.31;;;6.38;80.45
45793;BME280;31495;42.740;22.908;2024-01-07T00:14:44;91589.00;;;6.62;80.56
45793;BME280;31495;42.740;22.908;2024-01-07T00:15:44;91584.31;;;6.59;80.59
45793;BME280;31495;42.740;22.908;2024-01-07T00:16:43;91526.31;;;6.16;80.92
45793;BME280;31495;42.740;22.908;2024-01-07T00:17:43;91595.06;;;6.68;80.74
45793;BME280;31495;42.740;22.908;2024-01-07T00:18:43;91532.50;;;6.38;80.66
45793;BME280;31495;42.740;22.908;2024-01-07T00:19:43;91544.78;;;6.48;80.88
45793;BME280;31495;42.740;22.908;2024-01-07T00:20:43;91533.59;;;6.42;80.59
45793;BME280;31495;42.740;22.908;2024-01-07T00:21:43;91537.63;;;6.50;80.77
45793;BME280;31495;42.740;22.908;2024-01-07T00:22:43;91508.13;;;6.29;80.80
45793;BME280;31495;42.740;22.908;2024-01-07T00:23:43;91581.28;;;6.74;80.72
45793;BME280;31495;42.740;22.908;2024-01-07T00:24:43;91563.88;;;6.76;80.28
45793;BME280;31495;42.740;22.908;2024-01-07T00:25:43;91576.28;;;6.79;80.29
45793;BME280;31495;42.740;22.908;2024-01-07T00:26:43;91513.38;;;6.34;80.64
45793;BME280;31495;42.740;22.908;2024-01-07T00:27:44;91574.38;;;6.86;80.28
45793;BME280;31495;42.740;22.908;2024-01-07T00:28:44;91564.97;;;6.80;79.80
45793;BME280;31495;42.740;22.908;2024-01-07T00:29:44;91506.81;;;6.38;80.03
45793;BME280;31495;42.740;22.908;2024-01-07T00:30:44;91435.00;;;5.96;80.27
45793;BME280;31495;42.740;22.908;2024-01-07T00:31:44;91566.44;;;6.76;80.62
45793;BME280;31495;42.740;22.908;2024-01-07T00:32:44;91552.13;;;6.68;80.61
45793;BME280;31495;42.740;22.908;2024-01-07T00:33:44;91543.56;;;6.62;80.86
45793;BME280;31495;42.740;22.908;2024-01-07T00:34:44;91504.56;;;6.42;80.83
45793;BME280;31495;42.740;22.908;2024-01-07T00:35:44;91479.31;;;6.27;80.52
45793;BME280;31495;42.740;22.908;2024-01-07T00:36:44;91482.22;;;6.31;81.13
45793;BME280;31495;42.740;22.908;2024-01-07T00:37:44;91485.56;;;6.31;81.33
45793;BME280;31495;42.740;22.908;2024-01-07T00:38:45;91560.75;;;6.86;81.22
45793;BME280;31495;42.740;22.908;2024-01-07T00:39:45;91474.84;;;6.34;81.18
45793;BME280;31495;42.740;22.908;2024-01-07T00:40:45;91487.34;;;6.42;81.18
45793;BME280;31495;42.740;22.908;2024-01-07T00:41:45;91554.69;;;6.92;81.11
45793;BME280;31495;42.740;22.908;2024-01-07T00:42:45;91540.06;;;6.80;81.06
45793;BME280;31495;42.740;22.908;2024-01-07T00:43:45;91464.13;;;6.25;81.52
45793;BME280;31495;42.740;22.908;2024-01-07T00:44:45;91481.66;;;6.40;81.80
45793;BME280;31495;42.740;22.908;2024-01-07T00:45:45;91541.63;;;6.81;81.85
45793;BME280;31495;42.740;22.908;2024-01-07T00:46:45;91542.97;;;6.84;81.86
45793;BME280;31495;42.740;22.908;2024-01-07T00:47:45;91424.72;;;6.08;81.55
45793;BME280;31495;42.740;22.908;2024-01-07T00:48:45;91512.50;;;6.64;81.96
45793;BME280;31495;42.740;22.908;2024-01-07T00:49:45;91472.06;;;6.36;81.71
45793;BME280;31495;42.740;22.908;2024-01-07T00:50:46;91447.28;;;6.30;81.97
45793;BME280;31495;42.740;22.908;2024-01-07T00:51:46;91519.16;;;6.77;82.44
45793;BME280;31495;42.740;22.908;2024-01-07T00:52:46;91495.28;;;6.65;82.03
45793;BME280;31495;42.740;22.908;2024-01-07T00:53:46;91456.09;;;6.34;82.62
45793;BME280;31495;42.740;22.908;2024-01-07T00:54:46;91527.78;;;6.71;83.19
45793;BME280;31495;42.740;22.908;2024-01-07T00:55:46;91503.00;;;6.53;83.43
45793;BME280;31495;42.740;22.908;2024-01-07T00:56:46;91531.47;;;6.75;83.80
45793;BME280;31495;42.740;22.908;2024-01-07T00:57:46;91504.88;;;6.57;83.83
45793;BME280;31495;42.740;22.908;2024-01-07T00:58:46;91513.69;;;6.73;83.60
45793;BME280;31495;42.740;22.908;2024-01-07T00:59:46;91497.97;;;6.58;83.41
45793;BME280;31495;42.740;22.908;2024-01-07T01:00:46;91504.97;;;6.74;83.40
45793;BME280;31495;42.740;22.908;2024-01-07T01:01:47;91487.34;;;6.66;83.18
45793;BME280;31495;42.740;22.908;2024-01-07T01:02:47;91477.59;;;6.68;83.40
45793;BME280;31495;42.740;22.908;2024-01-07T01:03:47;91470.34;;;6.65;83.37
45793;BME280;31495;42.740;22.908;2024-01-07T01:04:47;91490.09;;;6.76;83.57
45793;BME280;31495;42.740;22.908;2024-01-07T01:05:47;91505.63;;;6.81;83.68
45793;BME280;31495;42.740;22.908;2024-01-07T01:06:47;91399.06;;;6.20;83.30
45793;BME280;31495;42.740;22.908;2024-01-07T01:07:47;91495.66;;;6.85;83.37
45793;BME280;31495;42.740;22.908;2024-01-07T01:08:47;91494.66;;;6.86;83.36
45793;BME280;31495;42.740;22.908;2024-01-07T01:09:47;91473.25;;;6.80;83.21
45793;BME280;31495;42.740;22.908;2024-01-07T01:10:47;91498.00;;;6.98;83.03
45793;BME280;31495;42.740;22.908;2024-01-07T01:11:47;91458.81;;;6.79;82.75
45793;BME280;31495;42.740;22.908;2024-01-07T01:12:48;91456.56;;;6.83;82.57
45793;BME280;31495;42.740;22.908;2024-01-07T01:13:48;91484.13;;;6.99;82.68
45793;BME280;31495;42.740;22.908;2024-01-07T01:14:48;91494.28;;;7.06;82.74
45793;BME280;31495;42.740;22.908;2024-01-07T01:15:48;91355.50;;;6.25;82.46
45793;BME280;31495;42.740;22.908;2024-01-07T01:16:48;91418.50;;;6.68;82.53
45793;BME280;31495;42.740;22.908;2024-01-07T01:17:48;91351.47;;;6.29;82.83
45793;BME280;31495;42.740;22.908;2024-01-07T01:18:48;91478.81;;;7.18;82.48
45793;BME280;31495;42.740;22.908;2024-01-07T01:19:48;91398.38;;;6.65;82.53
45793;BME280;31495;42.740;22.908;2024-01-07T01:20:48;91448.91;;;7.00;82.61
45793;BME280;31495;42.740;22.908;2024-01-07T01:21:48;91428.81;;;6.97;82.62
45793;BME280;31495;42.740;22.908;2024-01-07T01:22:48;91440.19;;;7.01;82.49
45793;BME280;31495;42.740;22.908;2024-01-07T01:23:48;91393.66;;;6.74;82.43
45793;BME280;31495;42.740;22.908;2024-01-07T01:24:48;91427.69;;;6.93;82.74
45793;BME280;31495;42.740;22.908;2024-01-07T01:25:50;91383.50;;;6.67;82.53
45793;BME280;31495;42.740;22.908;2024-01-07T01:26:49;91458.34;;;7.23;82.74
45793;BME280;31495;42.740;22.908;2024-01-07T01:27:49;91434.44;;;7.11;82.25
45793;BME280;31495;42.740;22.908;2024-01-07T01:28:49;91451.41;;;7.24;82.51
45793;BME280;31495;42.740;22.908;2024-01-07T01:29:49;91422.81;;;7.08;82.22
45793;BME280;31495;42.740;22.908;2024-01-07T01:30:49;91386.56;;;6.93;82.23
45793;BME280;31495;42.740;22.908;2024-01-07T01:31:49;91417.22;;;7.11;82.32
45793;BME280;31495;42.740;22.908;2024-01-07T01:32:49;91381.31;;;6.88;82.49
45793;BME280;31495;42.740;22.908;2024-01-07T01:33:49;91381.41;;;6.93;82.55
45793;BME280;31495;42.740;22.908;2024-01-07T01:34:49;91395.75;;;6.89;82.41
45793;BME280;31495;42.740;22.908;2024-01-07T01:35:49;91411.34;;;6.99;82.59
45793;BME280;31495;42.740;22.908;2024-01-07T01:36:50;91376.25;;;6.76;82.57
45793;BME280;31495;42.740;22.908;2024-01-07T01:37:50;91416.22;;;7.12;82.75
45793;BME280;31495;42.740;22.908;2024-01-07T01:38:50;91405.63;;;7.09;82.76
45793;BME280;31495;42.740;22.908;2024-01-07T01:39:50;91409.41;;;7.06;83.08
45793;BME280;31495;42.740;22.908;2024-01-07T01:40:53;91417.22;;;7.11;83.68
45793;BME280;31495;42.740;22.908;2024-01-07T01:41:53;91404.03;;;7.08;83.72
45793;BME280;31495;42.740;22.908;2024-01-07T01:42:52;91405.63;;;7.09;83.84
45793;BME280;31495;42.740;22.908;2024-01-07T01:43:57;91374.75;;;6.80;84.24
45793;BME280;31495;42.740;22.908;2024-01-07T01:44:56;91340.66;;;6.56;84.25
45793;BME280;31495;42.740;22.908;2024-01-07T01:45:58;91412.22;;;7.05;84.41
45793;BME280;31495;42.740;22.908;2024-01-07T01:46:58;91394.03;;;6.94;84.39
45793;BME280;31495;42.740;22.908;2024-01-07T01:47:59;91364.94;;;6.77;84.39
45793;BME280;31495;42.740;22.908;2024-01-07T01:49:00;91408.19;;;7.09;84.13
45793;BME280;31495;42.740;22.908;2024-01-07T01:50:00;91399.19;;;6.94;84.27
45793;BME280;31495;42.740;22.908;2024-01-07T01:51:00;91418.84;;;7.01;84.52
45793;BME280;31495;42.740;22.908;2024-01-07T01:52:00;91420.88;;;6.98;84.51
45793;BME280;31495;42.740;22.908;2024-01-07T01:53:00;91422.66;;;6.98;84.62
45793;BME280;31495;42.740;22.908;2024-01-07T01:54:00;91363.97;;;6.66;84.73
45793;BME280;31495;42.740;22.908;2024-01-07T01:55:01;91386.47;;;6.88;84.96
45793;BME280;31495;42.740;22.908;2024-01-07T01:56:01;91398.41;;;6.94;85.42
45793;BME280;31495;42.740;22.908;2024-01-07T01:57:04;91398.63;;;6.92;85.70
45793;BME280;31495;42.740;22.908;2024-01-07T01:58:05;91348.50;;;6.49;86.13
45793;BME280;31495;42.740;22.908;2024-01-07T01:59:08;91399.47;;;6.81;86.41
45793;BME280;31495;42.740;22.908;2024-01-07T02:00:08;91300.53;;;6.26;86.64
45793;BME280;31495;42.740;22.908;2024-01-07T02:01:08;91320.81;;;6.51;86.58
45793;BME280;31495;42.740;22.908;2024-01-07T02:02:07;91365.66;;;6.72;87.00
45793;BME280;31495;42.740;22.908;2024-01-07T02:03:06;91367.59;;;6.82;86.96
45793;BME280;31495;42.740;22.908;2024-01-07T02:04:06;91368.53;;;6.76;86.85
45793;BME280;31495;42.740;22.908;2024-01-07T02:05:06;91317.72;;;6.37;87.20
45793;BME280;31495;42.740;22.908;2024-01-07T02:06:05;91373.44;;;6.77;87.03
45793;BME280;31495;42.740;22.908;2024-01-07T02:07:05;91334.50;;;6.57;87.19
45793;BME280;31495;42.740;22.908;2024-01-07T02:08:06;91238.78;;;6.04;87.06
45793;BME280;31495;42.740;22.908;2024-01-07T02:09:06;91362.06;;;6.90;87.21
45793;BME280;31495;42.740;22.908;2024-01-07T02:10:05;91296.38;;;6.37;87.24
45793;BME280;31495;42.740;22.908;2024-01-07T02:11:23;91343.97;;;6.68;87.31
45793;BME280;31495;42.740;22.908;2024-01-07T02:12:23;91372.63;;;6.77;87.57
45793;BME280;31495;42.740;22.908;2024-01-07T02:13:23;91309.19;;;6.49;87.66
45793;BME280;31495;42.740;22.908;2024-01-07T02:14:23;91362.78;;;6.86;87.79
45793;BME280;31495;42.740;22.908;2024-01-07T02:15:23;91289.44;;;6.37;87.96
45793;BME280;31495;42.740;22.908;2024-01-07T02:16:23;91238.09;;;6.09;87.87
45793;BME280;31495;42.740;22.908;2024-01-07T02:17:23;91176.72;;;5.66;87.76
45793;BME280;31495;42.740;22.908;2024-01-07T02:18:23;91339.81;;;6.79;87.73
45793;BME280;31495;42.740;22.908;2024-01-07T02:19:23;91316.94;;;6.66;87.48
45793;BME280;31495;42.740;22.908;2024-01-07T02:20:23;91342.69;;;6.83;87.49
45793;BME280;31495;42.740;22.908;2024-01-07T02:21:23;91326.28;;;6.72;87.12
45793;BME280;31495;42.740;22.908;2024-01-07T02:22:23;91316.38;;;6.63;87.07
45793;BME280;31495;42.740;22.908;2024-01-07T02:23:23;91337.31;;;6.84;87.34
45793;BME280;31495;42.740;22.908;2024-01-07T02:24:24;91352.50;;;6.86;87.65
45793;BME280;31495;42.740;22.908;2024-01-07T02:25:24;91297.69;;;6.51;87.71
45793;BME280;31495;42.740;22.908;2024-01-07T02:26:24;91323.72;;;6.72;87.80
45793;BME280;31495;42.740;22.908;2024-01-07T02:27:24;91342.53;;;6.89;87.84
45793;BME280;31495;42.740;22.908;2024-01-07T02:28:24;91344.06;;;6.90;87.93
45793;BME280;31495;42.740;22.908;2024-01-07T02:29:24;91345.25;;;6.83;88.04
45793;BME280;31495;42.740;22.908;2024-01-07T02:30:24;91297.69;;;6.51;88.12
45793;BME280;31495;42.740;22.908;2024-01-07T02:31:26;91288.72;;;6.54;88.19
45793;BME280;31495;42.740;22.908;2024-01-07T02:32:26;91247.25;;;6.33;87.86
45793;BME280;31495;42.740;22.908;2024-01-07T02:33:26;91242.75;;;6.40;87.56
45793;BME280;31495;42.740;22.908;2024-01-07T02:34:25;91296.56;;;6.76;87.65
45793;BME280;31495;42.740;22.908;2024-01-07T02:35:25;91250.31;;;6.47;87.97
45793;BME280;31495;42.740;22.908;2024-01-07T02:36:25;91228.97;;;6.30;87.83
45793;BME280;31495;42.740;22.908;2024-01-07T02:37:25;91234.19;;;6.35;88.01
45793;BME280;31495;42.740;22.908;2024-01-07T02:38:25;91287.19;;;6.70;87.95
45793;BME280;31495;42.740;22.908;2024-01-07T02:39:25;91288.78;;;6.71;88.05
45793;BME280;31495;42.740;22.908;2024-01-07T02:40:25;91277.91;;;6.69;88.39
45793;BME280;31495;42.740;22.908;2024-01-07T02:41:25;91228.25;;;6.34;88.73
45793;BME280;31495;42.740;22.908;2024-01-07T02:42:25;91295.31;;;6.78;88.72
45793;BME280;31495;42.740;22.908;2024-01-07T02:43:25;91207.16;;;6.15;88.95
45793;BME280;31495;42.740;22.908;2024-01-07T02:44:25;91200.13;;;6.11;89.39
45793;BME280;31495;42.740;22.908;2024-01-07T02:45:25;91278.16;;;6.67;90.11
45793;BME280;31495;42.740;22.908;2024-01-07T02:46:26;91181.88;;;5.95;90.48
45793;BME280;31495;42.740;22.908;2024-01-07T02:47:26;91284.09;;;6.68;90.08
45793;BME280;31495;42.740;22.908;2024-01-07T02:48:26;91228.84;;;6.24;90.29
45793;BME280;31495;42.740;22.908;2024-01-07T02:49:26;91239.47;;;6.28;90.46
45793;BME280;31495;42.740;22.908;2024-01-07T02:50:26;91303.69;;;6.74;90.71
45793;BME280;31495;42.740;22.908;2024-01-07T02:51:26;91297.94;;;6.67;90.65
45793;BME280;31495;42.740;22.908;2024-01-07T02:52:26;91321.09;;;6.84;90.81
45793;BME280;31495;42.740;22.908;2024-01-07T02:53:26;91255.16;;;6.43;90.24
45793;BME280;31495;42.740;22.908;2024-01-07T02:54:26;91338.72;;;6.92;90.04
45793;BME280;31495;42.740;22.908;2024-01-07T02:55:26;91321.88;;;6.84;89.78
45793;BME280;31495;42.740;22.908;2024-01-07T02:56:26;91311.31;;;6.69;89.57
45793;BME280;31495;42.740;22.908;2024-01-07T02:57:27;91298.06;;;6.60;89.35
45793;BME280;31495;42.740;22.908;2024-01-07T02:58:27;91237.66;;;6.12;88.96
45793;BME280;31495;42.740;22.908;2024-01-07T02:59:27;91352.81;;;6.89;88.88
45793;BME280;31495;42.740;22.908;2024-01-07T03:00:27;91346.19;;;6.93;88.90
45793;BME280;31495;42.740;22.908;2024-01-07T03:01:27;91282.34;;;6.56;88.54
45793;BME280;31495;42.740;22.908;2024-01-07T03:02:27;91291.13;;;6.60;88.52
45793;BME280;31495;42.740;22.908;2024-01-07T03:03:27;91354.34;;;7.02;88.76
45793;BME280;31495;42.740;22.908;2024-01-07T03:04:27;91332.56;;;6.93;88.90
45793;BME280;31495;42.740;22.908;2024-01-07T03:05:27;91232.84;;;6.32;88.39
45793;BME280;31495;42.740;22.908;2024-01-07T03:06:28;91351.00;;;7.18;88.34
45793;BME280;31495;42.740;22.908;2024-01-07T03:07:28;91337.34;;;7.01;88.14
45793;BME280;31495;42.740;22.908;2024-01-07T03:08:28;91335.94;;;7.10;87.95
45793;BME280;31495;42.740;22.908;2024-01-07T03:09:28;91295.06;;;6.80;87.80
45793;BME280;31495;42.740;22.908;2024-01-07T03:10:28;91366.28;;;7.25;87.66
45793;BME280;31495;42.740;22.908;2024-01-07T03:11:28;91331.28;;;7.07;87.41
45793;BME280;31495;42.740;22.908;2024-01-07T03:12:28;91368.69;;;7.32;87.04
45793;BME280;31495;42.740;22.908;2024-01-07T03:13:28;91369.94;;;7.29;87.31
45793;BME280;31495;42.740;22.908;2024-01-07T03:14:28;91301.56;;;6.83;87.10
45793;BME280;31495;42.740;22.908;2024-01-07T03:15:28;91349.28;;;7.07;87.21
45793;BME280;31495;42.740;22.908;2024-01-07T03:16:28;91375.53;;;7.09;87.65
45793;BME280;31495;42.740;22.908;2024-01-07T03:17:31;91306.97;;;6.69;87.53
45793;BME280;31495;42.740;22.908;2024-01-07T03:18:31;91349.22;;;6.90;87.21
45793;BME280;31495;42.740;22.908;2024-01-07T03:19:30;91382.84;;;7.01;87.12
45793;BME280;31495;42.740;22.908;2024-01-07T03:20:30;91322.16;;;6.42;87.04
45793;BME280;31495;42.740;22.908;2024-01-07T03:21:29;91392.88;;;6.73;87.65
45793;BME280;31495;42.740;22.908;2024-01-07T03:22:29;91340.59;;;6.39;87.43
45793;BME280;31495;42.740;22.908;2024-01-07T03:23:29;91327.84;;;6.15;87.94
45793;BME280;31495;42.740;22.908;2024-01-07T03:24:29;91266.59;;;5.71;87.77
45793;BME280;31495;42.740;22.908;2024-01-07T03:25:29;91410.84;;;6.44;89.07
45793;BME280;31495;42.740;22.908;2024-01-07T03:26:30;91358.19;;;6.18;89.52
45793;BME280;31495;42.740;22.908;2024-01-07T03:27:32;91208.34;;;5.20;89.50
45793;BME280;31495;42.740;22.908;2024-01-07T03:28:31;91382.81;;;6.43;89.94
45793;BME280;31495;42.740;22.908;2024-01-07T03:29:31;91329.38;;;6.16;89.90
45793;BME280;31495;42.740;22.908;2024-01-07T03:30:30;91355.00;;;6.40;90.11
45793;BME280;31495;42.740;22.908;2024-01-07T03:31:29;91384.59;;;6.54;90.82
45793;BME280;31495;42.740;22.908;2024-01-07T03:32:29;91378.44;;;6.43;91.67
45793;BME280;31495;42.740;22.908;2024-01-07T03:33:30;91346.69;;;6.21;92.24
45793;BME280;31495;42.740;22.908;2024-01-07T03:34:30;91352.56;;;6.33;91.90
45793;BME280;31495;42.740;22.908;2024-01-07T03:35:30;91327.78;;;6.27;91.79
45793;BME280;31495;42.740;22.908;2024-01-07T03:36:30;91298.81;;;6.03;91.89
45793;BME280;31495;42.740;22.908;2024-01-07T03:37:30;91318.22;;;6.11;92.06
45793;BME280;31495;42.740;22.908;2024-01-07T03:38:30;91359.25;;;6.34;92.26
45793;BME280;31495;42.740;22.908;2024-01-07T03:39:32;91298.06;;;6.02;92.43
45793;BME280;31495;42.740;22.908;2024-01-07T03:40:32;91341.72;;;6.43;91.78
45793;BME280;31495;42.740;22.908;2024-01-07T03:41:32;91387.09;;;6.66;92.24
45793;BME280;31495;42.740;22.908;2024-01-07T03:42:31;91365.66;;;6.60;91.90
45793;BME280;31495;42.740;22.908;2024-01-07T03:43:31;91372.31;;;6.73;91.86
45793;BME280;31495;42.740;22.908;2024-01-07T03:44:31;91366.50;;;6.78;91.60
45793;BME280;31495;42.740;22.908;2024-01-07T03:45:32;91290.13;;;6.33;nan
45793;BME280;31495;42.740;22.908;2024-01-07T03:46:31;91313.09;;;6.51;91.18
45793;BME280;31495;42.740;22.908;2024-01-07T03:47:31;91360.38;;;6.79;91.14
45793;BME280;31495;42.740;22.908;2024-01-07T03:48:31;91314.22;;;6.43;91.01
45793;BME280;31495;42.740;22.908;2024-01-07T03:49:31;91350.09;;;6.79;90.87
45793;BME280;31495;42.740;22.908;2024-01-07T03:50:31;91315.06;;;6.61;90.50
45793;BME280;31495;42.740;22.908;2024-01-07T03:51:31;91215.44;;;6.05;90.21
45793;BME280;31495;42.740;22.908;2024-01-07T03:52:32;91353.69;;;6.95;89.94
45793;BME280;31495;42.740;22.908;2024-01-07T03:53:32;91284.50;;;6.48;90.00
45793;BME280;31495;42.740;22.908;2024-01-07T03:54:32;91358.28;;;6.93;90.13
45793;BME280;31495;42.740;22.908;2024-01-07T03:55:32;91339.44;;;6.87;90.04
45793;BME280;31495;42.740;22.908;2024-01-07T03:56:32;91360.38;;;6.96;90.09
45793;BME280;31495;42.740;22.908;2024-01-07T03:57:32;91323.03;;;6.76;89.90
45793;BME280;31495;42.740;22.908;2024-01-07T03:58:33;91352.13;;;6.94;89.92
45793;BME280;31495;42.740;22.908;2024-01-07T03:59:34;91354.72;;;6.94;90.15
45793;BME280;31495;42.740;22.908;2024-01-07T04:00:34;91328.84;;;6.72;90.34
45793;BME280;31495;42.740;22.908;2024-01-07T04:01:33;91327.53;;;6.69;90.02
45793;BME280;31495;42.740;22.908;2024-01-07T04:02:33;91272.59;;;6.41;90.13
45793;BME280;31495;42.740;22.908;2024-01-07T04:03:32;91266.25;;;6.32;89.83
45793;BME280;31495;42.740;22.908;2024-01-07T04:04:32;91335.50;;;6.85;90.12
45793;BME280;31495;42.740;22.908;2024-01-07T04:05:32;91335.06;;;6.88;89.98
45793;BME280;31495;42.740;22.908;2024-01-07T04:06:32;91336.38;;;6.90;89.34
45793;BME280;31495;42.740;22.908;2024-01-07T04:07:33;91272.66;;;6.47;89.88
45793;BME280;31495;42.740;22.908;2024-01-07T04:08:33;91272.75;;;6.52;89.57
45793;BME280;31495;42.740;22.908;2024-01-07T04:09:33;91293.47;;;6.62;89.47
45793;BME280;31495;42.740;22.908;2024-01-07T04:10:33;91269.22;;;6.41;89.73
45793;BME280;31495;42.740;22.908;2024-01-07T04:11:33;91301.75;;;6.64;89.96
45793;BME280;31495;42.740;22.908;2024-01-07T04:12:33;91272.75;;;6.52;89.69
45793;BME280;31495;42.740;22.908;2024-01-07T04:13:33;91317.03;;;6.71;89.66
45793;BME280;31495;42.740;22.908;2024-01-07T04:14:33;91243.50;;;6.24;89.80
45793;BME280;31495;42.740;22.908;2024-01-07T04:15:33;91323.03;;;6.76;89.47
45793;BME280;31495;42.740;22.908;2024-01-07T04:16:33;91224.31;;;6.15;89.53
45793;BME280;31495;42.740;22.908;2024-01-07T04:17:33;91316.81;;;6.72;89.58
45793;BME280;31495;42.740;22.908;2024-01-07T04:18:33;91298.06;;;6.60;89.17
45793;BME280;31495;42.740;22.908;2024-01-07T04:19:36;91321.47;;;6.75;88.89
45793;BME280;31495;42.740;22.908;2024-01-07T04:20:36;91311.75;;;6.77;88.80
45793;BME280;31495;42.740;22.908;2024-01-07T04:21:36;91247.81;;;6.35;88.90
45793;BME280;31495;42.740;22.908;2024-01-07T04:22:35;91288.19;;;6.69;88.76
45793;BME280;31495;42.740;22.908;2024-01-07T04:23:34;91308.22;;;6.84;89.00
45793;BME280;31495;42.740;22.908;2024-01-07T04:24:34;91285.97;;;6.72;89.22
45793;BME280;31495;42.740;22.908;2024-01-07T04:25:34;91301.88;;;6.86;89.26
45793;BME280;31495;42.740;22.908;2024-01-07T04:26:34;91218.78;;;6.35;88.68
45793;BME280;31495;42.740;22.908;2024-01-07T04:27:38;91293.91;;;6.88;88.74
45793;BME280;31495;42.740;22.908;2024-01-07T04:28:41;91308.22;;;6.84;89.04
45793;BME280;31495;42.740;22.908;2024-01-07T04:29:40;91226.50;;;6.35;89.24
45793;BME280;31495;42.740;22.908;2024-01-07T04:30:40;91295.88;;;6.80;89.14
45793;BME280;31495;42.740;22.908;2024-01-07T04:31:39;91113.69;;;5.59;89.13
45793;BME280;31495;42.740;22.908;2024-01-07T04:32:39;91184.31;;;6.02;89.42
45793;BME280;31495;42.740;22.908;2024-01-07T04:33:39;91234.81;;;6.42;89.67
45793;BME280;31495;42.740;22.908;2024-01-07T04:34:38;91190.84;;;6.10;89.71
45793;BME280;31495;42.740;22.908;2024-01-07T04:35:38;91296.09;;;6.79;89.80
45793;BME280;31495;42.740;22.908;2024-01-07T04:36:37;91275.81;;;6.66;89.62
45793;BME280;31495;42.740;22.908;2024-01-07T04:37:37;91306.63;;;6.77;89.44
45793;BME280;31495;42.740;22.908;2024-01-07T04:38:37;91234.72;;;6.20;90.16
45793;BME280;31495;42.740;22.908;2024-01-07T04:39:36;91294.91;;;6.70;89.96
45793;BME280;31495;42.740;22.908;2024-01-07T04:40:36;91249.59;;;6.35;89.97
45793;BME280;31495;42.740;22.908;2024-01-07T04:41:36;91283.66;;;6.59;90.02
45793;BME280;31495;42.740;22.908;2024-01-07T04:42:36;91266.84;;;6.51;89.70
45793;BME280;31495;42.740;22.908;2024-01-07T04:43:36;91296.63;;;6.64;89.67
45793;BME280;31495;42.740;22.908;2024-01-07T04:44:36;91232.22;;;6.25;89.53
45793;BME280;31495;42.740;22.908;2024-01-07T04:45:36;91220.53;;;6.17;89.61
45793;BME280;31495;42.740;22.908;2024-01-07T04:46:39;91298.84;;;6.60;89.61
45793;BME280;31495;42.740;22.908;2024-01-07T04:47:39;91306.47;;;6.55;90.10
45793;BME280;31495;42.740;22.908;2024-01-07T04:48:38;91308.81;;;6.57;90.36
45793;BME280;31495;42.740;22.908;2024-01-07T04:49:38;91217.56;;;5.97;90.67
45793;BME280;31495;42.740;22.908;2024-01-07T04:50:40;91303.50;;;6.47;90.97
45793;BME280;31495;42.740;22.908;2024-01-07T04:51:41;91225.22;;;5.68;92.20
45793;BME280;31495;42.740;22.908;2024-01-07T04:52:40;91217.84;;;5.71;92.53
45793;BME280;31495;42.740;22.908;2024-01-07T04:53:40;91283.25;;;6.21;93.05
45793;BME280;31495;42.740;22.908;2024-01-07T04:54:39;91194.13;;;5.52;93.30
45793;BME280;31495;42.740;22.908;2024-01-07T04:55:39;91270.44;;;6.10;93.30
45793;BME280;31495;42.740;22.908;2024-01-07T04:56:38;91225.78;;;5.70;93.34
45793;BME280;31495;42.740;22.908;2024-01-07T04:57:38;91291.22;;;6.20;93.47
45793;BME280;31495;42.740;22.908;2024-01-07T04:58:37;91299.00;;;6.25;93.64
45793;BME280;31495;42.740;22.908;2024-01-07T04:59:37;91212.16;;;5.69;93.67
45793;BME280;31495;42.740;22.908;2024-01-07T05:00:37;91270.09;;;6.18;93.33
45793;BME280;31495;42.740;22.908;2024-01-07T05:01:37;91174.22;;;5.43;93.06
45793;BME280;31495;42.740;22.908;2024-01-07T05:02:37;91280.03;;;6.14;93.45
45793;BME280;31495;42.740;22.908;2024-01-07T05:03:37;91287.78;;;6.31;93.26
45793;BME280;31495;42.740;22.908;2024-01-07T05:04:37;91215.56;;;5.87;93.26
45793;BME280;31495;42.740;22.908;2024-01-07T05:05:38;91218.47;;;5.91;92.92
45793;BME280;31495;42.740;22.908;2024-01-07T05:06:38;91278.41;;;6.37;92.38
45793;BME280;31495;42.740;22.908;2024-01-07T05:07:38;91280.28;;;6.41;92.34
45793;BME280;31495;42.740;22.908;2024-01-07T05:08:40;91289.63;;;6.48;92.38
45793;BME280;31495;42.740;22.908;2024-01-07T05:09:39;91195.84;;;5.87;92.07
45793;BME280;31495;42.740;22.908;2024-01-07T05:10:39;91264.31;;;6.39;91.71
45793;BME280;31495;42.740;22.908;2024-01-07T05:11:40;91251.66;;;6.21;91.56
45793;BME280;31495;42.740;22.908;2024-01-07T05:12:39;91223.50;;;5.97;91.78
45793;BME280;31495;42.740;22.908;2024-01-07T05:13:39;91281.50;;;6.39;91.65
45793;BME280;31495;42.740;22.908;2024-01-07T05:14:40;91260.94;;;6.22;91.67
45793;BME280;31495;42.740;22.908;2024-01-07T05:15:41;91214.56;;;6.00;91.60
45793;BME280;31495;42.740;22.908;2024-01-07T05:16:41;91240.75;;;6.14;91.95
45793;BME280;31495;42.740;22.908;2024-01-07T05:17:40;91289.88;;;6.46;91.92
45793;BME280;31495;42.740;22.908;2024-01-07T05:18:40;91272.81;;;6.40;91.62